createdAt,value
2023-04-23T00:00:45.943Z,13.67
2023-04-23T00:01:45.948Z,13.65
2023-04-23T00:02:45.998Z,13.67
2023-04-23T00:03:46.198Z,13.67
2023-04-23T00:04:46.327Z,13.65
2023-04-23T00:05:45.908Z,13.67
2023-04-23T00:06:45.895Z,13.67
2023-04-23T00:07:45.888Z,13.65
2023-04-23T00:08:45.868Z,13.62
2023-04-23T00:09:45.894Z,13.63
2023-04-23T00:10:45.834Z,13.63
2023-04-23T00:11:45.829Z,13.63
2023-04-23T00:12:45.818Z,13.60
2023-04-23T00:13:45.815Z,13.62
2023-04-23T00:14:45.781Z,13.62
2023-04-23T00:15:45.833Z,13.60
2023-04-23T00:16:45.788Z,13.60
2023-04-23T00:17:45.783Z,13.59
2023-04-23T00:18:45.735Z,13.60
2023-04-23T00:19:45.739Z,13.62
2023-04-23T00:20:45.723Z,13.60
2023-04-23T00:21:45.748Z,13.62
2023-04-23T00:22:45.739Z,13.60
2023-04-23T00:23:45.705Z,13.59
2023-04-23T00:24:45.672Z,13.60
2023-04-23T00:25:45.673Z,13.59
2023-04-23T00:26:45.662Z,13.57
2023-04-23T00:27:45.675Z,13.56
2023-04-23T00:28:45.638Z,13.59
2023-04-23T00:29:45.637Z,13.59
2023-04-23T00:30:45.614Z,13.56
2023-04-23T00:31:45.630Z,13.56
2023-04-23T00:32:45.663Z,13.57
2023-04-23T00:33:45.624Z,13.56
2023-04-23T00:34:45.576Z,13.56
2023-04-23T00:35:45.584Z,13.59
2023-04-23T00:36:45.561Z,13.57
2023-04-23T00:37:45.556Z,13.56
2023-04-23T00:38:45.517Z,13.57
2023-04-23T00:39:45.572Z,13.56
2023-04-23T00:40:45.497Z,13.56
2023-04-23T00:41:45.504Z,13.56
2023-04-23T00:42:45.472Z,13.56
2023-04-23T00:43:45.525Z,13.56
2023-04-23T00:44:45.455Z,13.54
2023-04-23T00:45:45.497Z,13.56
2023-04-23T00:46:45.432Z,13.52
2023-04-23T00:47:45.521Z,13.53
2023-04-23T00:48:45.410Z,13.54
2023-04-23T00:49:45.449Z,13.52
2023-04-23T00:50:45.387Z,13.53
2023-04-23T00:51:45.421Z,13.52
2023-04-23T00:52:45.362Z,13.52
2023-04-23T00:53:45.379Z,13.49
2023-04-23T00:54:45.346Z,13.46
2023-04-23T00:55:45.364Z,13.46
2023-04-23T00:56:45.326Z,13.42
2023-04-23T00:57:45.368Z,13.41
2023-04-23T00:58:45.300Z,13.41
2023-04-23T00:59:45.301Z,13.41
2023-04-23T01:00:45.288Z,13.39
2023-04-23T01:01:45.298Z,13.39
2023-04-23T01:02:45.367Z,13.38
2023-04-23T01:03:45.442Z,13.35
2023-04-23T01:04:45.241Z,13.35
2023-04-23T01:05:45.237Z,13.35
2023-04-23T01:06:45.239Z,13.31
2023-04-23T01:07:45.230Z,13.37
2023-04-23T01:08:45.195Z,13.35
2023-04-23T01:09:45.211Z,13.33
2023-04-23T01:10:45.180Z,13.30
2023-04-23T01:11:45.192Z,13.31
2023-04-23T01:12:45.169Z,13.31
2023-04-23T01:13:45.186Z,13.31
2023-04-23T01:14:45.133Z,13.30
2023-04-23T01:15:45.163Z,13.30
2023-04-23T01:16:45.142Z,13.30
2023-04-23T01:17:45.209Z,13.30
2023-04-23T01:18:45.108Z,13.30
2023-04-23T01:19:45.069Z,13.31
2023-04-23T01:20:45.100Z,13.28
2023-04-23T01:21:45.062Z,13.27
2023-04-23T01:22:45.077Z,13.27
2023-04-23T01:23:45.036Z,13.27
2023-04-23T01:24:45.055Z,13.23
2023-04-23T01:25:45.011Z,13.27
2023-04-23T01:26:45.092Z,13.25
2023-04-23T01:27:44.979Z,13.25
2023-04-23T01:28:44.990Z,13.27
2023-04-23T01:29:44.980Z,13.23
2023-04-23T06:00:57.679Z,12.78
2023-04-23T06:01:58.623Z,12.80
2023-04-23T06:02:58.682Z,12.80
2023-04-23T06:03:58.864Z,12.83
2023-04-23T06:04:58.822Z,12.86
2023-04-23T06:05:58.687Z,12.86
2023-04-23T06:06:58.561Z,12.90
2023-04-23T06:07:58.560Z,12.90
2023-04-23T06:08:58.550Z,12.93
2023-04-23T06:09:58.538Z,12.93
2023-04-23T06:10:58.515Z,12.95
2023-04-23T06:11:58.534Z,12.97
2023-04-23T06:12:58.526Z,13.01
2023-04-23T06:13:58.493Z,13.01
2023-04-23T06:14:58.475Z,13.04
2023-04-23T06:15:58.521Z,13.05
2023-04-23T06:16:58.442Z,13.09
2023-04-23T06:17:58.488Z,13.11
2023-04-23T06:18:58.460Z,13.11
2023-04-23T06:19:58.427Z,13.12
2023-04-23T06:20:58.424Z,13.12
2023-04-23T06:21:58.387Z,13.12
2023-04-23T06:22:58.397Z,13.12
2023-04-23T06:23:58.372Z,13.12
2023-04-23T06:24:58.392Z,13.09
2023-04-23T06:25:58.354Z,13.12
2023-04-23T06:26:58.357Z,13.12
2023-04-23T06:27:58.332Z,13.09
2023-04-23T06:28:58.345Z,13.09
2023-04-23T06:29:58.333Z,13.09
2023-04-23T06:30:58.378Z,13.11
2023-04-23T06:31:58.278Z,13.11
2023-04-23T06:32:58.304Z,13.09
2023-04-23T06:33:58.263Z,13.13
2023-04-23T06:35:01.975Z,13.11
2023-04-23T06:35:58.235Z,13.09
2023-04-23T06:36:58.289Z,13.12
2023-04-23T06:37:58.277Z,13.15
2023-04-23T06:38:58.236Z,13.15
2023-04-23T06:39:58.187Z,13.18
2023-04-23T06:40:58.204Z,13.22
2023-04-23T06:41:58.170Z,13.22
2023-04-23T06:42:58.208Z,13.27
2023-04-23T06:43:58.180Z,13.30
2023-04-23T06:44:58.181Z,13.33
2023-04-23T06:45:58.134Z,13.33
2023-04-23T06:46:58.213Z,13.37
2023-04-23T06:47:58.146Z,13.38
2023-04-23T06:48:58.154Z,13.39
2023-04-23T06:49:58.114Z,13.41
2023-04-23T06:50:58.104Z,13.46
2023-04-23T06:51:58.175Z,13.46
2023-04-23T06:52:58.079Z,13.46
2023-04-23T06:53:58.047Z,13.47
2023-04-23T06:54:58.079Z,13.50
2023-04-23T06:55:58.021Z,13.50
2023-04-23T06:56:58.024Z,13.53
2023-04-23T06:57:58.006Z,13.54
2023-04-23T06:58:58.032Z,13.54
2023-04-23T06:59:57.980Z,13.52
2023-04-23T07:00:58.239Z,13.56
2023-04-23T07:01:57.953Z,13.57
2023-04-23T07:02:58.256Z,13.57
2023-04-23T07:03:58.017Z,13.59
2023-04-23T07:04:57.976Z,13.59
2023-04-23T07:05:57.937Z,13.60
2023-04-23T07:06:57.957Z,13.60
2023-04-23T07:07:57.915Z,13.62
2023-04-23T07:08:57.914Z,13.62
2023-04-23T07:09:57.893Z,13.62
2023-04-23T07:10:57.933Z,13.63
2023-04-23T07:11:57.884Z,13.63
2023-04-23T07:12:57.917Z,13.68
2023-04-23T07:13:57.949Z,13.71
2023-04-23T07:14:57.880Z,13.70
2023-04-23T07:15:57.823Z,13.72
2023-04-23T07:16:57.906Z,13.71
2023-04-23T07:17:57.831Z,13.72
2023-04-23T07:18:57.850Z,13.71
2023-04-23T07:19:57.792Z,13.72
2023-04-23T07:20:57.794Z,13.72
2023-04-23T07:21:57.785Z,13.72
2023-04-23T07:22:57.780Z,13.72
2023-04-23T07:23:57.745Z,13.72
2023-04-23T07:24:57.835Z,13.72
2023-04-23T07:25:57.735Z,13.70
2023-04-23T07:26:57.735Z,13.71
2023-04-23T07:27:57.747Z,13.72
2023-04-23T07:28:57.731Z,13.72
2023-04-23T07:29:57.684Z,13.71
2023-04-23T07:30:57.709Z,13.70
2023-04-23T07:31:57.687Z,13.71
2023-04-23T07:32:57.722Z,13.74
2023-04-23T07:33:57.659Z,13.77
2023-04-23T07:34:57.672Z,13.77
2023-04-23T07:35:57.635Z,13.75
2023-04-23T07:36:57.637Z,13.78
2023-04-23T07:37:57.664Z,13.83
2023-04-23T07:38:57.604Z,13.87
2023-04-23T07:39:57.579Z,13.92
2023-04-23T07:40:57.597Z,13.96
2023-04-23T07:41:57.571Z,13.99
2023-04-23T07:42:57.560Z,14.00
2023-04-23T07:43:57.536Z,14.04
2023-04-23T07:44:57.540Z,14.08
2023-04-23T07:45:57.565Z,14.10
2023-04-23T07:46:57.519Z,14.14
2023-04-23T07:47:57.586Z,14.15
2023-04-23T07:48:57.483Z,14.18
2023-04-23T07:49:57.462Z,14.18
2023-04-23T07:50:57.501Z,14.18
2023-04-23T07:51:57.458Z,14.22
2023-04-23T07:52:57.445Z,14.22
2023-04-23T07:53:57.441Z,14.22
2023-04-23T07:54:57.458Z,14.23
2023-04-23T07:55:57.405Z,14.22
2023-04-23T07:56:57.414Z,14.23
2023-04-23T07:57:57.390Z,14.25
2023-04-23T07:58:57.395Z,14.28
2023-04-23T07:59:57.385Z,14.29
2023-04-23T08:00:57.373Z,14.30
2023-04-23T08:01:57.339Z,14.32
2023-04-23T08:02:57.507Z,14.32
2023-04-23T08:03:59.514Z,14.33
2023-04-23T08:04:57.506Z,14.33
2023-04-23T08:05:57.296Z,14.35
2023-04-23T08:06:57.332Z,14.35
2023-04-23T08:07:57.278Z,14.36
2023-04-23T08:08:57.292Z,14.41
2023-04-23T08:09:57.273Z,14.44
2023-04-23T08:10:57.263Z,14.44
2023-04-23T08:11:57.270Z,14.47
2023-04-23T08:12:57.232Z,14.48
2023-04-23T08:13:57.210Z,14.48
2023-04-23T08:14:57.213Z,14.48
2023-04-23T08:15:57.215Z,14.53
2023-04-23T08:16:57.197Z,14.54
2023-04-23T08:17:57.254Z,14.53
2023-04-23T08:19:04.963Z,14.53
2023-04-23T08:19:57.154Z,14.55
2023-04-23T08:20:57.195Z,14.58
2023-04-23T08:21:57.140Z,14.59
2023-04-23T08:22:57.144Z,14.58
2023-04-23T08:23:57.110Z,14.59
2023-04-23T08:24:57.131Z,14.60
2023-04-23T08:25:57.108Z,14.62
2023-04-23T08:26:57.101Z,14.62
2023-04-23T08:27:57.064Z,14.62
2023-04-23T08:28:57.099Z,14.62
2023-04-23T08:29:57.035Z,14.65
2023-04-23T08:30:57.062Z,14.65
2023-04-23T08:31:57.015Z,14.65
2023-04-23T08:32:57.068Z,14.65
2023-04-23T08:33:57.019Z,14.63
2023-04-23T08:34:57.024Z,14.66
2023-04-23T08:35:56.998Z,14.66
2023-04-23T08:36:56.976Z,14.68
2023-04-23T08:37:56.963Z,14.70
2023-04-23T08:38:56.976Z,14.77
2023-04-23T08:39:56.937Z,14.77
2023-04-23T08:40:56.963Z,14.78
2023-04-23T08:41:56.970Z,14.81
2023-04-23T08:42:56.907Z,14.84
2023-04-23T08:43:56.898Z,14.82
2023-04-23T08:44:56.888Z,14.82
2023-04-23T08:45:56.872Z,14.84
2023-04-23T08:46:56.905Z,14.85
2023-04-23T08:47:57.235Z,14.84
2023-04-23T08:48:56.882Z,14.85
2023-04-23T08:49:56.838Z,14.86
2023-04-23T08:50:56.819Z,14.89
2023-04-23T08:51:56.815Z,14.92
2023-04-23T08:52:56.892Z,14.96
2023-04-23T08:53:56.782Z,14.99
2023-04-23T08:54:56.801Z,15.00
2023-04-23T08:55:56.785Z,15.03
2023-04-23T08:56:56.764Z,15.04
2023-04-23T08:57:56.768Z,15.04
2023-04-23T08:58:57.172Z,15.09
2023-04-23T08:59:56.738Z,15.10
2023-04-23T09:00:56.750Z,15.14
2023-04-23T09:01:56.746Z,15.15
2023-04-23T09:02:56.905Z,15.19
2023-04-23T09:03:56.914Z,15.22
2023-04-23T09:04:56.704Z,15.22
2023-04-23T09:05:56.649Z,15.27
2023-04-23T09:06:56.664Z,15.28
2023-04-23T09:07:56.644Z,15.29
2023-04-23T09:08:56.643Z,15.31
2023-04-23T09:09:56.641Z,15.35
2023-04-23T09:10:56.642Z,15.36
2023-04-23T09:11:56.597Z,15.40
2023-04-23T09:12:56.590Z,15.46
2023-04-23T09:13:56.563Z,15.51
2023-04-23T09:14:56.648Z,15.52
2023-04-23T09:15:56.582Z,15.59
2023-04-23T09:16:56.623Z,15.62
2023-04-23T09:17:57.308Z,15.68
2023-04-23T09:18:56.536Z,15.75
2023-04-23T09:19:56.504Z,15.80
2023-04-23T09:20:56.717Z,15.83
2023-04-23T09:21:56.519Z,15.88
2023-04-23T09:22:56.505Z,15.92
2023-04-23T09:23:56.493Z,15.95
2023-04-23T09:24:56.486Z,15.97
2023-04-23T09:25:56.458Z,16.00
2023-04-23T09:26:56.453Z,16.01
2023-04-23T09:27:56.460Z,16.02
2023-04-23T09:28:56.433Z,16.05
2023-04-23T09:29:56.418Z,16.10
2023-04-23T09:30:56.410Z,16.13
2023-04-23T09:31:56.522Z,16.13
2023-04-23T09:32:56.418Z,16.16
2023-04-23T09:33:56.388Z,16.21
2023-04-23T09:34:56.356Z,16.23
2023-04-23T09:35:56.356Z,16.28
2023-04-23T09:36:56.361Z,16.31
2023-04-23T09:37:56.332Z,16.36
2023-04-23T09:38:56.328Z,16.38
2023-04-23T09:39:56.314Z,16.41
2023-04-23T09:40:56.303Z,16.46
2023-04-23T09:41:56.274Z,16.47
2023-04-23T09:42:56.288Z,16.50
2023-04-23T09:43:56.261Z,16.49
2023-04-23T09:44:56.264Z,16.49
2023-04-23T09:45:56.242Z,16.50
2023-04-23T09:46:56.227Z,16.46
2023-04-23T09:47:56.292Z,16.43
2023-04-23T09:48:56.251Z,16.46
2023-04-23T09:49:56.189Z,16.43
2023-04-23T09:50:56.192Z,16.47
2023-04-23T09:51:56.208Z,16.47
2023-04-23T09:52:56.168Z,16.49
2023-04-23T09:53:56.135Z,16.51
2023-04-23T09:54:56.194Z,16.54
2023-04-23T09:55:56.123Z,16.58
2023-04-23T09:56:56.137Z,16.60
2023-04-23T09:57:56.092Z,16.66
2023-04-23T09:58:56.120Z,16.68
2023-04-23T10:00:03.743Z,16.71
2023-04-23T10:00:56.105Z,16.72
2023-04-23T10:01:56.071Z,16.69
2023-04-23T10:02:56.241Z,16.69
2023-04-23T10:03:56.191Z,16.68
2023-04-23T10:05:06.593Z,16.68
2023-04-23T10:06:01.953Z,16.69
2023-04-23T10:07:13.654Z,16.71
2023-04-23T10:07:56.011Z,16.72
2023-04-23T10:08:55.995Z,16.74
2023-04-23T10:09:55.986Z,16.72
2023-04-23T10:11:09.517Z,16.75
2023-04-23T10:11:55.945Z,16.75
2023-04-23T10:12:55.993Z,16.76
2023-04-23T10:13:55.937Z,16.79
2023-04-23T10:14:55.942Z,16.79
2023-04-23T10:15:56.666Z,16.78
2023-04-23T10:16:55.938Z,16.76
2023-04-23T10:17:56.018Z,16.74
2023-04-23T10:18:55.888Z,16.75
2023-04-23T10:19:55.914Z,16.75
2023-04-23T10:20:55.866Z,16.76
2023-04-23T10:22:02.360Z,16.78
2023-04-23T10:22:55.844Z,16.78
2023-04-23T10:23:55.806Z,16.79
2023-04-23T10:24:55.938Z,16.79
2023-04-23T10:25:55.806Z,16.83
2023-04-23T10:26:55.809Z,16.86
2023-04-23T10:27:55.785Z,16.89
2023-04-23T10:28:55.806Z,16.90
2023-04-23T10:29:55.753Z,16.91
2023-04-23T10:30:55.817Z,16.96
2023-04-23T10:31:55.779Z,16.96
2023-04-23T10:32:55.781Z,16.97
2023-04-23T10:33:59.439Z,16.99
2023-04-23T10:34:55.730Z,17.02
2023-04-23T10:35:55.725Z,17.02
2023-04-23T10:36:55.702Z,17.02
2023-04-23T10:37:55.726Z,17.02
2023-04-23T10:38:58.882Z,16.96
2023-04-23T10:39:55.667Z,16.91
2023-04-23T10:40:55.638Z,16.89
2023-04-23T10:41:55.638Z,16.89
2023-04-23T10:42:55.640Z,16.90
2023-04-23T10:43:55.675Z,16.91
2023-04-23T10:44:59.536Z,16.89
2023-04-23T10:45:55.595Z,16.91
2023-04-23T10:46:55.670Z,16.96
2023-04-23T10:47:55.639Z,16.96
2023-04-23T10:48:55.569Z,16.97
2023-04-23T10:49:55.600Z,16.99
2023-04-23T10:52:55.533Z,17.02
2023-04-23T10:53:55.512Z,17.08
2023-04-23T10:54:55.517Z,17.09
2023-04-23T10:55:55.595Z,17.08
2023-04-23T10:56:55.473Z,17.06
2023-04-23T10:57:55.474Z,17.09
2023-04-23T10:58:55.472Z,17.11
2023-04-23T10:59:55.468Z,17.15
2023-04-23T11:00:55.428Z,17.16
2023-04-23T11:01:55.634Z,17.22
2023-04-23T11:02:55.542Z,17.24
2023-04-23T11:03:55.551Z,17.26
2023-04-23T11:04:55.446Z,17.29
2023-04-23T11:05:55.384Z,17.29
2023-04-23T11:06:55.389Z,17.36
2023-04-23T11:07:55.393Z,17.39
2023-04-23T11:08:55.413Z,17.42
2023-04-23T11:09:55.353Z,17.49
2023-04-23T11:10:55.312Z,17.51
2023-04-23T11:11:55.364Z,17.54
2023-04-23T11:12:55.295Z,17.60
2023-04-23T11:13:55.329Z,17.65
2023-04-23T11:14:55.284Z,17.68
2023-04-23T11:15:55.272Z,17.71
2023-04-23T11:16:55.507Z,17.70
2023-04-23T11:17:55.314Z,17.71
2023-04-23T11:18:55.265Z,17.74
2023-04-23T11:19:55.243Z,17.78
2023-04-23T11:20:55.207Z,17.79
2023-04-23T11:21:55.222Z,17.83
2023-04-23T11:22:55.210Z,17.87
2023-04-23T11:23:55.213Z,17.89
2023-04-23T11:24:55.172Z,17.89
2023-04-23T11:25:55.175Z,17.90
2023-04-23T11:26:55.139Z,17.94
2023-04-23T11:27:55.146Z,17.95
2023-04-23T11:28:55.113Z,17.98
2023-04-23T11:29:55.146Z,18.01
2023-04-23T11:30:55.113Z,18.03
2023-04-23T11:32:02.523Z,18.00
2023-04-23T11:32:55.193Z,17.94
2023-04-23T11:33:55.109Z,17.89
2023-04-23T11:34:55.095Z,17.86
2023-04-23T11:35:55.082Z,17.83
2023-04-23T11:36:55.051Z,17.83
2023-04-23T11:37:55.040Z,17.82
2023-04-23T11:38:55.011Z,17.78
2023-04-23T11:39:55.028Z,17.74
2023-04-23T11:40:55.018Z,17.70
2023-04-23T11:41:55.074Z,17.63
2023-04-23T11:42:55.433Z,17.60
2023-04-23T11:43:55.021Z,17.57
2023-04-23T11:44:54.952Z,17.54
2023-04-23T11:45:55.073Z,17.54
2023-04-23T11:46:57.056Z,17.56
2023-04-23T11:47:55.019Z,17.49
2023-04-23T11:48:54.905Z,17.52
2023-04-23T11:49:54.945Z,17.49
2023-04-23T11:50:54.888Z,17.52
2023-04-23T11:51:54.908Z,17.52
2023-04-23T11:52:54.894Z,17.56
2023-04-23T11:53:54.892Z,17.63
2023-04-23T11:54:54.844Z,17.70
2023-04-23T11:55:54.868Z,17.74
2023-04-23T11:56:54.840Z,17.83
2023-04-23T11:57:54.858Z,17.90
2023-04-23T11:58:54.823Z,17.98
2023-04-23T11:59:54.839Z,18.04
2023-04-23T12:00:54.790Z,18.13
2023-04-23T12:01:54.779Z,18.16
2023-04-23T12:02:54.854Z,18.22
2023-04-23T12:03:54.896Z,18.20
2023-04-23T12:04:54.787Z,18.22
2023-04-23T12:05:54.767Z,18.16
2023-04-23T12:06:54.735Z,18.11
2023-04-23T12:07:54.732Z,18.10
2023-04-23T12:08:54.687Z,18.01
2023-04-23T12:09:54.707Z,17.95
2023-04-23T12:10:54.664Z,17.98
2023-04-23T12:11:54.663Z,17.98
2023-04-23T12:12:54.647Z,17.90
2023-04-23T12:13:54.663Z,17.80
2023-04-23T12:14:54.623Z,17.76
2023-04-23T12:15:54.679Z,17.71
2023-04-23T12:16:54.626Z,17.72
2023-04-23T12:17:54.654Z,17.78
2023-04-23T12:18:54.586Z,17.74
2023-04-23T12:19:54.626Z,17.76
2023-04-23T12:20:54.563Z,17.74
2023-04-23T12:21:54.598Z,17.72
2023-04-23T12:22:54.549Z,17.72
2023-04-23T12:23:54.552Z,17.76
2023-04-23T12:24:54.557Z,17.76
2023-04-23T12:25:54.550Z,17.74
2023-04-23T12:26:54.797Z,17.78
2023-04-23T12:27:54.537Z,17.76
2023-04-23T12:28:54.488Z,17.79
2023-04-23T12:29:54.523Z,17.82
2023-04-23T12:30:54.518Z,17.82
2023-04-23T12:31:54.468Z,17.83
2023-04-23T12:32:54.470Z,17.82
2023-04-23T12:33:54.490Z,17.85
2023-04-23T12:34:54.428Z,17.87
2023-04-23T12:35:54.465Z,17.90
2023-04-23T12:36:54.400Z,17.92
2023-04-23T12:37:54.390Z,17.97
2023-04-23T12:38:54.393Z,17.95
2023-04-23T12:39:54.390Z,17.97
2023-04-23T12:40:54.352Z,17.98
2023-04-23T12:41:54.360Z,18.03
2023-04-23T12:42:54.352Z,18.04
2023-04-23T12:43:54.334Z,18.04
2023-04-23T12:44:54.308Z,18.03
2023-04-23T12:45:54.349Z,18.04
2023-04-23T12:46:56.981Z,18.08
2023-04-23T12:47:54.313Z,18.10
2023-04-23T12:48:54.274Z,18.11
2023-04-23T12:49:54.328Z,18.16
2023-04-23T12:50:54.248Z,18.19
2023-04-23T12:51:54.266Z,18.22
2023-04-23T12:52:54.301Z,18.25
2023-04-23T12:53:54.248Z,18.28
2023-04-23T12:54:54.205Z,18.29
2023-04-23T12:55:54.239Z,18.33
2023-04-23T12:56:54.198Z,18.35
2023-04-23T12:57:54.192Z,18.35
2023-04-23T12:58:54.169Z,18.43
2023-04-23T12:59:54.165Z,18.49
2023-04-23T13:00:54.172Z,18.58
2023-04-23T13:01:54.168Z,18.62
2023-04-23T13:02:54.215Z,18.65
2023-04-23T13:03:54.261Z,18.68
2023-04-23T13:04:54.146Z,18.74
2023-04-23T13:05:54.117Z,18.77
2023-04-23T13:06:54.072Z,18.78
2023-04-23T13:07:54.064Z,18.77
2023-04-23T13:08:54.065Z,18.77
2023-04-23T13:09:54.049Z,18.75
2023-04-23T13:10:54.072Z,18.71
2023-04-23T13:11:54.055Z,18.70
2023-04-23T13:12:54.010Z,18.70
2023-04-23T13:13:54.017Z,18.73
2023-04-23T13:14:54.023Z,18.77
2023-04-23T13:15:53.989Z,18.78
2023-04-23T13:16:53.974Z,18.86
2023-04-23T13:17:54.045Z,18.89
2023-04-23T13:18:53.945Z,18.95
2023-04-23T13:19:53.962Z,19.00
2023-04-23T13:20:53.926Z,19.08
2023-04-23T13:21:53.997Z,19.09
2023-04-23T13:22:53.923Z,19.15
2023-04-23T13:23:53.928Z,19.22
2023-04-23T13:24:53.907Z,19.29
2023-04-23T13:25:53.891Z,19.40
2023-04-23T13:26:53.864Z,19.49
2023-04-23T13:27:53.895Z,19.62
2023-04-23T13:28:53.868Z,19.74
2023-04-23T13:29:53.848Z,19.84
2023-04-23T13:30:53.816Z,19.95
2023-04-23T13:31:53.886Z,20.07
2023-04-23T13:32:53.860Z,20.11
2023-04-23T13:33:53.820Z,20.16
2023-04-23T13:34:53.831Z,20.22
2023-04-23T13:35:53.772Z,20.29
2023-04-23T13:36:53.763Z,20.32
2023-04-23T13:37:53.795Z,20.40
2023-04-23T13:38:53.731Z,20.44
2023-04-23T13:39:53.767Z,20.51
2023-04-23T13:40:53.724Z,20.59
2023-04-23T13:42:02.739Z,20.63
2023-04-23T13:42:53.697Z,20.62
2023-04-23T13:43:53.697Z,20.72
2023-04-23T13:44:53.674Z,20.78
2023-04-23T13:45:53.708Z,20.84
2023-04-23T13:46:53.654Z,20.88
2023-04-23T13:47:53.675Z,20.92
2023-04-23T13:48:53.628Z,20.95
2023-04-23T13:49:53.644Z,20.97
2023-04-23T13:50:53.656Z,21.00
2023-04-23T13:51:53.655Z,21.03
2023-04-23T13:52:53.606Z,21.03
2023-04-23T13:53:53.591Z,21.06
2023-04-23T13:54:53.588Z,21.06
2023-04-23T13:55:53.561Z,21.02
2023-04-23T13:56:53.576Z,21.02
2023-04-23T13:57:53.591Z,21.03
2023-04-23T13:58:54.106Z,21.02
2023-04-23T13:59:53.524Z,21.06
2023-04-23T14:00:53.617Z,21.06
2023-04-23T14:01:53.546Z,21.07
2023-04-23T14:02:53.598Z,21.12
2023-04-23T14:03:53.500Z,21.15
2023-04-23T14:04:53.675Z,21.24
2023-04-23T14:05:53.475Z,21.27
2023-04-23T14:06:53.457Z,21.32
2023-04-23T14:07:53.453Z,21.33
2023-04-23T14:08:53.440Z,21.37
2023-04-23T14:09:53.433Z,21.37
2023-04-23T14:10:53.397Z,21.35
2023-04-23T14:11:53.395Z,21.30
2023-04-23T14:12:53.363Z,21.27
2023-04-23T14:13:53.390Z,21.22
2023-04-23T14:14:53.426Z,21.27
2023-04-23T14:15:53.401Z,21.30
2023-04-23T14:16:53.348Z,21.32
2023-04-23T14:17:53.410Z,21.35
2023-04-23T14:18:53.323Z,21.36
2023-04-23T14:19:53.331Z,21.39
2023-04-23T14:20:53.289Z,21.42
2023-04-23T14:21:53.310Z,21.45
2023-04-23T14:22:53.276Z,21.50
2023-04-23T14:23:53.301Z,21.51
2023-04-23T14:24:53.261Z,21.60
2023-04-23T14:25:53.291Z,21.66
2023-04-23T14:26:53.224Z,21.70
2023-04-23T14:27:53.230Z,21.73
2023-04-23T14:28:53.215Z,21.77
2023-04-23T14:29:53.205Z,21.82
2023-04-23T14:30:53.237Z,21.88
2023-04-23T14:31:53.219Z,21.85
2023-04-23T14:32:53.234Z,21.88
2023-04-23T14:33:53.181Z,21.92
2023-04-23T14:34:53.136Z,21.95
2023-04-23T14:35:53.157Z,22.00
2023-04-23T14:36:53.424Z,22.04
2023-04-23T14:37:53.141Z,22.10
2023-04-23T14:38:53.085Z,22.17
2023-04-23T14:39:53.096Z,22.26
2023-04-23T14:40:53.087Z,22.32
2023-04-23T14:41:53.115Z,22.36
2023-04-23T14:42:53.749Z,22.38
2023-04-23T14:43:53.077Z,22.38
2023-04-23T14:44:53.033Z,22.39
2023-04-23T14:45:53.039Z,22.43
2023-04-23T14:46:53.007Z,22.44
2023-04-23T14:47:53.116Z,22.44
2023-04-23T14:48:52.996Z,22.47
2023-04-23T14:49:53.050Z,22.47
2023-04-23T14:50:52.967Z,22.45
2023-04-23T14:51:53.005Z,22.47
2023-04-23T14:52:52.972Z,22.47
2023-04-23T14:53:54.668Z,22.50
2023-04-23T14:54:52.957Z,22.44
2023-04-23T14:55:52.924Z,22.41
2023-04-23T14:56:52.936Z,22.39
2023-04-23T14:57:52.945Z,22.30
2023-04-23T14:58:52.922Z,22.25
2023-04-23T14:59:52.910Z,22.18
2023-04-23T15:00:53.560Z,22.15
2023-04-23T15:01:52.906Z,22.13
2023-04-23T15:02:53.065Z,22.10
2023-04-23T15:03:54.035Z,22.02
2023-04-23T15:04:53.594Z,21.95
2023-04-23T15:05:52.808Z,21.91
2023-04-23T15:06:52.797Z,21.88
2023-04-23T15:07:52.813Z,21.83
2023-04-23T15:08:52.782Z,21.82
2023-04-23T15:09:52.830Z,21.82
2023-04-23T15:10:52.810Z,21.80
2023-04-23T15:11:52.749Z,21.75
2023-04-23T15:12:53.621Z,21.66
2023-04-23T15:13:53.428Z,21.58
2023-04-23T15:14:54.710Z,21.52
2023-04-23T15:15:52.820Z,21.50
2023-04-23T15:16:52.779Z,21.40
2023-04-23T15:17:52.730Z,21.40
2023-04-23T15:18:52.830Z,21.33
2023-04-23T15:19:52.659Z,21.30
2023-04-23T15:20:54.357Z,21.27
2023-04-23T15:21:52.650Z,21.24
2023-04-23T15:22:52.772Z,21.25
2023-04-23T15:23:53.741Z,21.24
2023-04-23T15:24:52.629Z,21.21
2023-04-23T15:25:52.720Z,21.15
2023-04-23T15:26:52.648Z,21.09
2023-04-23T15:27:52.571Z,21.06
2023-04-23T15:28:52.613Z,21.05
2023-04-23T15:29:52.860Z,20.99
2023-04-23T15:30:52.570Z,20.99
2023-04-23T15:31:52.646Z,20.96
2023-04-23T15:32:52.564Z,20.92
2023-04-23T15:33:52.530Z,20.87
2023-04-23T15:34:52.562Z,20.82
2023-04-23T15:35:52.610Z,20.80
2023-04-23T15:36:52.504Z,20.72
2023-04-23T15:37:52.527Z,20.65
2023-04-23T15:38:53.150Z,20.60
2023-04-23T15:39:52.856Z,20.59
2023-04-23T15:40:52.434Z,20.52
2023-04-23T15:41:52.598Z,20.51
2023-04-23T15:42:52.427Z,20.44
2023-04-23T15:43:53.154Z,20.41
2023-04-23T15:44:52.404Z,20.39
2023-04-23T15:45:52.647Z,20.34
2023-04-23T15:46:52.413Z,20.34
2023-04-23T15:47:52.429Z,20.31
2023-04-23T15:48:52.986Z,20.28
2023-04-23T15:49:52.382Z,20.26
2023-04-23T15:50:52.373Z,20.22
2023-04-23T15:51:52.325Z,20.22
2023-04-23T15:52:52.330Z,20.22
2023-04-23T15:53:52.307Z,20.18
2023-04-23T15:54:52.315Z,20.14
2023-04-23T15:55:52.331Z,20.14
2023-04-23T15:56:52.279Z,20.11
2023-04-23T15:57:52.297Z,20.07
2023-04-23T15:58:52.363Z,20.04
2023-04-23T15:59:52.253Z,20.00
2023-04-23T16:00:52.328Z,19.96
2023-04-23T16:01:52.283Z,19.95
2023-04-23T16:02:52.327Z,19.94
2023-04-23T16:04:08.614Z,19.88
2023-04-23T16:04:52.252Z,19.85
2023-04-23T16:05:52.185Z,19.82
2023-04-23T16:06:52.197Z,19.79
2023-04-23T16:07:52.153Z,19.76
2023-04-23T16:08:52.136Z,19.71
2023-04-23T16:09:52.163Z,19.71
2023-04-23T16:10:52.133Z,19.67
2023-04-23T16:11:52.136Z,19.64
2023-04-23T16:12:52.109Z,19.59
2023-04-23T16:13:52.121Z,19.59
2023-04-23T16:14:52.089Z,19.55
2023-04-23T16:15:52.104Z,19.54
2023-04-23T16:16:52.157Z,19.48
2023-04-23T16:17:52.102Z,19.48
2023-04-23T16:18:52.085Z,19.40
2023-04-23T16:19:52.036Z,19.37
2023-04-23T16:20:52.040Z,19.34
2023-04-23T16:21:52.022Z,19.30
2023-04-23T16:22:52.033Z,19.26
2023-04-23T16:23:52.040Z,19.24
2023-04-23T16:24:51.981Z,19.16
2023-04-23T16:25:51.984Z,19.11
2023-04-23T16:26:52.004Z,19.11
2023-04-23T16:27:51.931Z,19.11
2023-04-23T16:29:05.572Z,19.07
2023-04-23T16:29:51.930Z,19.07
2023-04-23T16:30:51.933Z,19.02
2023-04-23T16:31:51.912Z,18.99
2023-04-23T16:32:51.913Z,18.99
2023-04-23T16:33:51.908Z,18.93
2023-04-23T16:34:51.875Z,18.92
2023-04-23T16:35:51.848Z,18.88
2023-04-23T16:36:51.864Z,18.84
2023-04-23T16:37:51.832Z,18.84
2023-04-23T16:38:51.853Z,18.63
2023-04-23T16:39:51.825Z,18.41
2023-04-23T16:40:51.832Z,18.16
2023-04-23T16:41:51.826Z,17.90
2023-04-23T16:42:51.777Z,17.65
2023-04-23T16:43:51.769Z,17.42
2023-04-23T16:44:51.770Z,17.23
2023-04-23T16:45:51.776Z,17.02
2023-04-23T16:46:51.739Z,16.91
2023-04-23T16:47:51.763Z,16.79
2023-04-23T16:48:51.722Z,16.64
2023-04-23T16:49:51.720Z,16.50
2023-04-23T16:50:51.735Z,16.35
2023-04-23T16:51:51.953Z,16.26
2023-04-23T16:52:51.710Z,16.13
2023-04-23T16:53:51.684Z,16.02
2023-04-23T16:54:51.680Z,15.94
2023-04-23T16:55:51.635Z,15.83
2023-04-23T16:56:51.658Z,15.76
2023-04-23T16:57:51.813Z,15.65
2023-04-23T16:58:51.631Z,15.57
2023-04-23T16:59:52.681Z,15.46
2023-04-23T17:00:51.594Z,15.39
2023-04-23T17:01:51.599Z,15.36
2023-04-23T17:02:51.742Z,15.29
2023-04-23T17:03:51.726Z,15.25
2023-04-23T17:04:51.799Z,15.22
2023-04-23T17:05:51.535Z,15.21
2023-04-23T17:06:51.532Z,15.15
2023-04-23T17:07:51.524Z,15.11
2023-04-23T17:08:51.513Z,15.06
2023-04-23T17:09:51.500Z,14.99
2023-04-23T17:10:51.477Z,15.00
2023-04-23T17:11:51.455Z,14.97
2023-04-23T17:12:51.471Z,14.94
2023-04-23T17:13:51.504Z,14.91
2023-04-23T17:14:51.461Z,14.86
2023-04-23T17:15:51.438Z,14.84
2023-04-23T17:16:51.421Z,14.81
2023-04-23T17:17:51.705Z,14.78
2023-04-23T17:18:51.438Z,14.73
2023-04-23T17:19:51.417Z,14.72
2023-04-23T17:20:51.444Z,14.66
2023-04-23T17:21:51.349Z,14.65
2023-04-23T17:22:51.371Z,14.66
2023-04-23T17:23:51.549Z,14.66
2023-04-23T17:24:51.337Z,14.63